createdAt,value
2022-08-04T00:02:54.623Z,95960.59
2022-08-04T00:08:06.947Z,95953.50
2022-08-04T00:13:12.569Z,95949.25
2022-08-04T00:18:18.521Z,95946.81
2022-08-04T00:23:21.579Z,95940.34
2022-08-04T00:28:26.352Z,95944.16
2022-08-04T00:33:30.820Z,95946.84
2022-08-04T00:38:35.444Z,95942.66
2022-08-04T00:43:50.982Z,95953.41
2022-08-04T00:49:30.261Z,95951.91
2022-08-04T00:54:39.678Z,95953.00
2022-08-04T01:00:04.948Z,95958.94
2022-08-04T01:05:16.693Z,95958.09
2022-08-04T01:10:29.998Z,95953.06
2022-08-04T01:16:00.159Z,95961.06
2022-08-04T01:21:32.366Z,95958.06
2022-08-04T01:26:57.699Z,95963.72
2022-08-04T01:32:08.438Z,95956.03
2022-08-04T01:37:34.573Z,95954.50
2022-08-04T01:42:39.954Z,95956.50
2022-08-04T01:47:51.528Z,95964.00
2022-08-04T01:52:56.059Z,95956.50
2022-08-04T01:58:01.691Z,95950.91
2022-08-04T02:03:05.957Z,95945.00
2022-08-04T02:08:21.961Z,95951.97
2022-08-04T02:13:30.625Z,95938.25
2022-08-04T02:18:46.039Z,95941.78
2022-08-04T02:23:55.073Z,95943.56
2022-08-04T02:29:04.716Z,95950.72
2022-08-04T02:34:18.445Z,95953.59
2022-08-04T02:39:23.088Z,95950.38
2022-08-04T02:44:29.381Z,95945.94
2022-08-04T02:49:37.785Z,95950.88
2022-08-04T02:54:46.626Z,95953.75
2022-08-04T03:00:06.596Z,95945.63
2022-08-04T03:05:18.039Z,95941.66
2022-08-04T03:10:35.233Z,95953.66
2022-08-04T03:16:02.281Z,95942.00
2022-08-04T03:21:33.487Z,95949.97
2022-08-04T03:26:59.271Z,95950.66
2022-08-04T03:32:44.949Z,95941.94
2022-08-04T03:38:15.709Z,95947.84
2022-08-04T03:43:56.825Z,95949.38
2022-08-04T03:49:38.569Z,95943.91
2022-08-04T03:55:06.296Z,95944.72
2022-08-04T04:00:13.532Z,95945.94
2022-08-04T04:05:58.762Z,95953.56
2022-08-04T04:11:31.406Z,95955.03
2022-08-04T04:16:45.137Z,95952.81
2022-08-04T04:22:09.631Z,95961.47
2022-08-04T04:27:19.418Z,95967.50
2022-08-04T04:32:28.223Z,95967.81
2022-08-04T04:37:49.074Z,95977.16
2022-08-04T04:43:20.030Z,95971.06
2022-08-04T04:48:34.997Z,95971.03
2022-08-04T04:53:48.667Z,95980.81
2022-08-04T04:58:55.361Z,95986.88
2022-08-04T05:04:13.199Z,95986.00
2022-08-04T05:09:39.881Z,95986.75
2022-08-04T05:14:47.451Z,95993.81
2022-08-04T05:19:58.754Z,95992.31
2022-08-04T05:25:07.393Z,95991.16
2022-08-04T05:30:13.526Z,95989.41
2022-08-04T05:35:47.929Z,95992.38
2022-08-04T05:40:47.075Z,95995.50
2022-08-04T05:45:53.091Z,95996.97
2022-08-04T05:51:00.708Z,96002.91
2022-08-04T05:56:07.275Z,96004.25
2022-08-04T06:01:12.794Z,96009.97
2022-08-04T06:06:16.380Z,96009.47
2022-08-04T06:11:20.676Z,96014.28
2022-08-04T06:16:30.186Z,96009.84
2022-08-04T06:21:35.438Z,96006.75
2022-08-04T06:26:40.327Z,96004.44
2022-08-04T06:32:26.968Z,96001.13
2022-08-04T06:37:42.876Z,96002.19
2022-08-04T06:42:45.515Z,96011.09
2022-08-04T06:47:51.010Z,96007.63
2022-08-04T06:52:53.967Z,96009.03
2022-08-04T06:58:02.777Z,96007.72
2022-08-04T07:03:08.362Z,96016.13
2022-08-04T07:08:12.169Z,96011.56
2022-08-04T07:13:15.461Z,96019.31
2022-08-04T07:18:19.819Z,96011.13
2022-08-04T07:23:25.330Z,96018.94
2022-08-04T07:28:29.842Z,96022.19
2022-08-04T07:33:34.525Z,96022.69
2022-08-04T07:38:37.890Z,96022.38
2022-08-04T07:43:52.647Z,96023.69
2022-08-04T07:48:58.231Z,96020.44
2022-08-04T07:54:03.401Z,96005.53
2022-08-04T07:59:07.284Z,96009.06
2022-08-04T08:04:12.606Z,96015.81
2022-08-04T08:09:16.940Z,96013.19
2022-08-04T08:14:20.650Z,96013.31
2022-08-04T08:19:25.846Z,96013.75
2022-08-04T08:24:29.348Z,96017.34
2022-08-04T08:29:35.428Z,95970.91
2022-08-04T08:34:40.339Z,96005.50
2022-08-04T08:39:51.254Z,96009.25
2022-08-04T08:45:21.670Z,96013.00
2022-08-04T08:50:53.335Z,95999.97
2022-08-04T08:56:12.666Z,95997.13
2022-08-04T09:01:38.779Z,95992.88
2022-08-04T09:07:00.354Z,95991.91
2022-08-04T09:12:10.530Z,95986.34
2022-08-04T09:17:21.885Z,95985.59
2022-08-04T09:22:38.805Z,95988.09
2022-08-04T09:27:47.840Z,95984.94
2022-08-04T09:33:02.548Z,95979.91
2022-08-04T09:38:16.236Z,95971.38
2022-08-04T09:43:28.261Z,95965.72
2022-08-04T09:48:56.174Z,95961.41
2022-08-04T09:54:30.827Z,95958.44
2022-08-04T09:59:41.572Z,95958.88
2022-08-04T10:04:45.324Z,95953.47
2022-08-04T10:10:11.561Z,95948.09
2022-08-04T10:15:18.334Z,95937.81
2022-08-04T10:20:44.937Z,95943.66
2022-08-04T10:26:08.481Z,95927.84
2022-08-04T10:31:18.442Z,95923.41
2022-08-04T10:36:25.042Z,95924.84
2022-08-04T10:41:39.457Z,95919.34
2022-08-04T10:46:48.606Z,95904.56
2022-08-04T10:52:00.556Z,95911.72
2022-08-04T10:57:12.154Z,95912.78
2022-08-04T11:02:28.340Z,95900.53
2022-08-04T11:07:34.332Z,95903.69
2022-08-04T11:12:41.583Z,95895.44
2022-08-04T11:17:48.807Z,95892.31
2022-08-04T11:23:08.173Z,95881.06
2022-08-04T11:28:20.193Z,95880.78
2022-08-04T11:33:32.468Z,95866.06
2022-08-04T11:38:45.268Z,95866.97
2022-08-04T11:44:02.378Z,95868.88
2022-08-04T11:49:09.706Z,95857.78
2022-08-04T11:54:13.739Z,95853.69
2022-08-04T11:59:20.628Z,95858.81
2022-08-04T12:04:37.244Z,95851.13
2022-08-04T12:09:48.200Z,95850.19
2022-08-04T12:14:59.842Z,95842.97
2022-08-04T12:20:31.866Z,95845.16
2022-08-04T12:25:34.345Z,95832.59
2022-08-04T12:30:59.817Z,95825.31
2022-08-04T12:36:20.956Z,95818.63
2022-08-04T12:41:28.993Z,95820.56
2022-08-04T12:46:34.221Z,95817.59
2022-08-04T12:52:07.936Z,95815.94
2022-08-04T12:57:09.600Z,95808.28
2022-08-04T13:02:17.959Z,95805.19
2022-08-04T13:07:26.109Z,95795.81
2022-08-04T13:12:32.400Z,95792.16
2022-08-04T13:17:50.747Z,95790.16
2022-08-04T13:22:59.425Z,95773.28
2022-08-04T13:28:03.318Z,95775.84
2022-08-04T13:33:08.740Z,95772.66
2022-08-04T13:38:13.382Z,95766.09
2022-08-04T13:44:16.043Z,95752.06
2022-08-04T13:49:23.577Z,95745.44
2022-08-04T13:54:17.565Z,95753.88
2022-08-04T13:59:23.840Z,95746.56
2022-08-04T14:04:29.310Z,95732.91
2022-08-04T14:09:36.028Z,95745.47
2022-08-04T14:14:47.354Z,95735.78
2022-08-04T14:19:54.187Z,95731.09
2022-08-04T14:24:58.199Z,95730.25
2022-08-04T14:30:01.097Z,95734.50
2022-08-04T14:35:13.391Z,95722.88
2022-08-04T14:40:30.490Z,95723.94
2022-08-04T14:45:35.686Z,95731.22
2022-08-04T14:50:41.865Z,95725.25
2022-08-04T14:55:47.813Z,95711.06
2022-08-04T15:00:51.445Z,95711.53
2022-08-04T15:06:05.531Z,95709.22
2022-08-04T15:11:10.986Z,95723.97
2022-08-04T15:16:29.360Z,95720.47
2022-08-04T15:21:34.409Z,95719.16
2022-08-04T15:26:40.522Z,95715.28
2022-08-04T15:32:07.281Z,95712.19
2022-08-04T15:37:10.105Z,95715.06
2022-08-04T15:42:21.222Z,95695.09
2022-08-04T15:47:24.672Z,95694.69
2022-08-04T15:52:32.004Z,95694.41
2022-08-04T15:58:00.714Z,95696.31
2022-08-04T16:03:03.532Z,95688.25
2022-08-04T16:08:15.850Z,95679.31
2022-08-04T16:13:21.973Z,95688.84
2022-08-04T16:18:43.755Z,95678.66
2022-08-04T16:24:12.835Z,95646.66
2022-08-04T16:29:34.185Z,95684.94
2022-08-04T16:34:49.395Z,95682.91
2022-08-04T16:40:33.278Z,95680.84
2022-08-04T16:45:42.318Z,95677.00
2022-08-04T16:50:53.389Z,95674.84
2022-08-04T16:55:58.330Z,95673.00
2022-08-04T17:01:11.237Z,95674.53
2022-08-04T17:06:24.817Z,95670.59
2022-08-04T17:11:33.789Z,95672.84
2022-08-04T17:16:38.996Z,95662.72
2022-08-04T17:21:41.800Z,95673.50
2022-08-04T17:26:54.527Z,95673.41
2022-08-04T17:31:58.074Z,95662.88
2022-08-04T17:37:36.460Z,95664.34
2022-08-04T17:42:34.299Z,95680.66
2022-08-04T17:47:50.045Z,95671.06
2022-08-04T17:53:01.356Z,95687.94
2022-08-04T18:03:43.167Z,95707.13
2022-08-04T18:08:57.969Z,95712.47
2022-08-04T18:14:03.478Z,95714.56
2022-08-04T18:19:10.171Z,95718.16
2022-08-04T18:24:13.568Z,95726.31
2022-08-04T18:29:31.343Z,95729.06
2022-08-04T18:34:35.339Z,95731.81
2022-08-04T18:40:17.281Z,95737.75
2022-08-04T18:45:09.802Z,95748.09
2022-08-04T18:50:40.009Z,95747.38
2022-08-04T18:55:56.667Z,95749.63
2022-08-04T19:01:00.430Z,95748.03
2022-08-04T19:06:04.426Z,95752.28
2022-08-04T19:11:38.362Z,95761.69
2022-08-04T19:16:35.151Z,95769.22
2022-08-04T19:22:00.874Z,95774.44
2022-08-04T19:27:07.818Z,95791.34
2022-08-04T19:32:16.222Z,95791.31
2022-08-04T19:37:56.098Z,95799.59
2022-08-04T19:42:43.421Z,95809.47
2022-08-04T19:48:11.231Z,95809.00
2022-08-04T19:53:18.679Z,95832.97
2022-08-04T19:58:26.333Z,95840.09
2022-08-04T20:04:09.558Z,95854.25
2022-08-04T20:08:53.759Z,95854.59
2022-08-04T20:13:59.359Z,95853.66
2022-08-04T20:19:09.279Z,95870.50
2022-08-04T20:24:38.951Z,95874.66
2022-08-04T20:29:40.948Z,95879.53
2022-08-04T20:34:47.386Z,95882.00
2022-08-04T20:39:55.346Z,95888.47
2022-08-04T20:44:58.635Z,95886.34
2022-08-04T20:50:03.168Z,95889.03
2022-08-04T20:55:07.480Z,95884.78
2022-08-04T21:00:13.296Z,95884.25
2022-08-04T21:05:18.022Z,95886.97
2022-08-04T21:10:21.942Z,95893.97
2022-08-04T21:15:26.419Z,95887.25
2022-08-04T21:20:49.843Z,95887.50
2022-08-04T21:25:58.021Z,95900.97
2022-08-04T21:31:02.472Z,95899.91
2022-08-04T21:36:19.952Z,95893.47
2022-08-04T21:41:24.933Z,95902.06
2022-08-04T21:46:30.627Z,95914.38
2022-08-04T21:52:00.329Z,95913.81
2022-08-04T21:56:59.858Z,95903.59
2022-08-04T22:02:08.531Z,95911.38
2022-08-04T22:07:12.766Z,95912.13
2022-08-04T22:12:20.976Z,95912.47
2022-08-04T22:17:24.343Z,95921.50
2022-08-04T22:22:29.404Z,95933.22
2022-08-04T22:27:55.394Z,95932.63
2022-08-04T22:32:58.483Z,95945.44
2022-08-04T22:38:07.842Z,95941.53
2022-08-04T22:43:32.856Z,95937.28
2022-08-04T22:48:39.478Z,95926.22
2022-08-04T22:53:49.177Z,95930.97
2022-08-04T22:58:52.118Z,95939.09
2022-08-04T23:03:57.497Z,95942.41
2022-08-04T23:09:01.697Z,95941.69
2022-08-04T23:14:05.466Z,95944.13
2022-08-04T23:19:09.938Z,95944.72
2022-08-04T23:24:16.436Z,95940.59
2022-08-04T23:29:19.256Z,95940.91
2022-08-04T23:34:22.087Z,95949.16
2022-08-04T23:39:42.191Z,95936.34
2022-08-04T23:44:48.896Z,95927.78
2022-08-04T23:49:51.767Z,95928.28
2022-08-04T23:55:02.418Z,95939.94
